Weather


ICAO METAR
KAPA KAPA 232253Z 36011G15KT 10SM FEW080 SCT130 SCT220 32/09 A3026 RMK AO2 SLP166 T03170089
KASE KASE 232253Z 31008G16KT 260V340 10SM SCT090 SCT120 28/04 A3038 RMK AO2 SLP155 T02780044
KBJC KBJC 232247Z 35007KT 40SM SCT100 BKN150CB 30/12 A3027 RMK CB NE-SE
KBKF KBKF 232158Z 35010G15KT 10SM FEW090 SCT200 33/10 A3025 RMK AO2A SLP161 T03250099
KCOS KCOS 232254Z 18010G17KT 10SM FEW060 SCT140 SCT240 27/09 A3032 RMK AO2 LTG DSNT W SLP181 T02720094
KCPR KCPR 232253Z 04003KT 10SM CLR 34/04 A3019 RMK AO2 LTG DSNT N SLP149 T03440039
KCYS KCYS 232253Z 34004KT 10SM CLR 29/06 A3030 RMK AO2 SLP171 T02940061
KDEN KDEN 232253Z 34006KT 10SM FEW080 FEW160 BKN220 31/09 A3023 RMK AO2 SLP151 TCU DSNT NE-SE T03110089
KEGE KEGE 232256Z VRB05KT 10SM CLR 28/13 A3031 RMK AO2 RAE13 SLP203 P0000 T02780128
KFCS KFCS 232258Z AUTO 20006KT 10SM CLR 27/08 A3029 RMK AO2 SLP202 T02700079 $
KFMN KFMN 232253Z VRB04KT 10SM CLR 32/08 A3022 RMK AO2 SLP165 T03170078
KFTG KFTG 232247Z 12005KT 10SM BKN090 BKN120 31/10 A3024
KGCC KGCC 232253Z AUTO 13008KT 10SM CLR 32/13 A3015 RMK AO2 SLP157 T03170128
KGJT KGJT 232253Z 33010G16KT 10SM CLR 37/06 A3012 RMK AO2 LTG DSNT SW SLP110 T03720056
KPUB KPUB 232253Z 12011KT 10SM CLR 31/12 A3019 RMK AO2 SLP159 T03060122
KRAP KRAP 232252Z 16004KT 10SM CLR 25/18 A3014 RMK AO2 LTG DSNT W SLP188 T02500183
KRCA KRCA 232156Z AUTO 17011KT 10SM CLR 30/19 A3014 RMK AO2 SLP186 T02960190 $

Surface Data
Click here.

This is a composite map contain the following analyses: radar summary (color filled areas), surface data plot (composite station model), frontal locations (in various bold lines) and pressure contours (in thin blue lines).